sensor_id;sensor_type;location;lat;lon;timestamp;P1;durP1;ratioP1;P2;durP2;ratioP2
63010;SDS011;49100;48.842;2.166;2022-10-23T18:41:13;37.00;;;28.00;;
63010;SDS011;49100;48.842;2.166;2022-10-23T18:43:59;31.50;;;28.25;;
63010;SDS011;49100;48.842;2.166;2022-10-23T18:46:45;27.00;;;26.25;;
63010;SDS011;49100;48.842;2.166;2022-10-23T18:49:30;31.75;;;27.25;;
63010;SDS011;49100;48.842;2.166;2022-10-23T18:52:14;32.25;;;30.25;;
63010;SDS011;49100;48.842;2.166;2022-10-23T18:54:59;34.00;;;32.00;;
63010;SDS011;49100;48.842;2.166;2022-10-23T18:57:43;32.50;;;26.75;;
63010;SDS011;49100;48.842;2.166;2022-10-23T19:00:28;26.25;;;24.25;;
63010;SDS011;49100;48.842;2.166;2022-10-23T19:03:13;27.00;;;23.75;;
63010;SDS011;49100;48.842;2.166;2022-10-23T19:05:59;26.00;;;23.00;;
63010;SDS011;49100;48.842;2.166;2022-10-23T19:08:44;26.00;;;20.00;;
63010;SDS011;49100;48.842;2.166;2022-10-23T19:11:29;24.75;;;21.50;;
63010;SDS011;49100;48.842;2.166;2022-10-23T19:14:13;31.75;;;28.00;;
63010;SDS011;49100;48.842;2.166;2022-10-23T19:16:58;24.25;;;23.00;;
63010;SDS011;49100;48.842;2.166;2022-10-23T19:19:49;24.25;;;21.00;;
63010;SDS011;49100;48.842;2.166;2022-10-23T19:22:35;28.75;;;26.75;;
63010;SDS011;49100;48.842;2.166;2022-10-23T19:25:24;23.75;;;20.75;;
63010;SDS011;49100;48.842;2.166;2022-10-23T19:28:11;23.50;;;21.75;;
63010;SDS011;49100;48.842;2.166;2022-10-23T19:30:55;35.25;;;29.75;;
63010;SDS011;49100;48.842;2.166;2022-10-23T19:33:40;37.25;;;30.75;;
63010;SDS011;49100;48.842;2.166;2022-10-23T19:36:25;33.75;;;30.75;;
63010;SDS011;49100;48.842;2.166;2022-10-23T19:39:10;41.25;;;30.50;;
63010;SDS011;49100;48.842;2.166;2022-10-23T19:41:55;20.00;;;15.75;;
63010;SDS011;49100;48.842;2.166;2022-10-23T19:44:41;27.25;;;22.75;;
63010;SDS011;49100;48.842;2.166;2022-10-23T19:47:26;25.75;;;24.50;;
63010;SDS011;49100;48.842;2.166;2022-10-23T19:50:10;30.50;;;25.75;;
63010;SDS011;49100;48.842;2.166;2022-10-23T19:52:55;26.50;;;26.00;;
63010;SDS011;49100;48.842;2.166;2022-10-23T19:55:40;24.25;;;23.50;;
63010;SDS011;49100;48.842;2.166;2022-10-23T19:58:24;23.00;;;21.25;;
63010;SDS011;49100;48.842;2.166;2022-10-23T20:01:13;23.50;;;21.00;;
63010;SDS011;49100;48.842;2.166;2022-10-23T20:03:58;37.75;;;32.50;;
63010;SDS011;49100;48.842;2.166;2022-10-23T20:06:43;45.00;;;35.00;;
63010;SDS011;49100;48.842;2.166;2022-10-23T20:09:27;44.25;;;34.00;;
63010;SDS011;49100;48.842;2.166;2022-10-23T20:12:11;49.75;;;39.25;;
63010;SDS011;49100;48.842;2.166;2022-10-23T20:14:56;47.00;;;38.00;;
63010;SDS011;49100;48.842;2.166;2022-10-23T20:17:41;49.75;;;38.50;;
63010;SDS011;49100;48.842;2.166;2022-10-23T20:20:25;51.50;;;40.25;;
63010;SDS011;49100;48.842;2.166;2022-10-23T20:23:10;37.75;;;33.50;;
63010;SDS011;49100;48.842;2.166;2022-10-23T20:26:01;43.50;;;35.75;;
63010;SDS011;49100;48.842;2.166;2022-10-23T20:28:47;41.75;;;33.75;;
63010;SDS011;49100;48.842;2.166;2022-10-23T20:31:34;34.75;;;32.00;;
63010;SDS011;49100;48.842;2.166;2022-10-23T20:34:19;43.50;;;35.50;;
63010;SDS011;49100;48.842;2.166;2022-10-23T20:37:04;44.75;;;36.00;;
63010;SDS011;49100;48.842;2.166;2022-10-23T20:39:49;45.75;;;35.25;;
63010;SDS011;49100;48.842;2.166;2022-10-23T20:42:34;45.75;;;38.00;;
63010;SDS011;49100;48.842;2.166;2022-10-23T20:45:19;46.50;;;37.75;;
63010;SDS011;49100;48.842;2.166;2022-10-23T20:48:04;41.00;;;34.25;;
63010;SDS011;49100;48.842;2.166;2022-10-23T20:50:48;44.75;;;34.75;;
63010;SDS011;49100;48.842;2.166;2022-10-23T20:53:33;42.75;;;35.00;;
63010;SDS011;49100;48.842;2.166;2022-10-23T20:56:21;39.75;;;31.75;;
63010;SDS011;49100;48.842;2.166;2022-10-23T20:59:14;41.50;;;33.75;;
63010;SDS011;49100;48.842;2.166;2022-10-23T21:02:00;40.50;;;32.75;;
63010;SDS011;49100;48.842;2.166;2022-10-23T21:04:45;46.00;;;36.50;;
63010;SDS011;49100;48.842;2.166;2022-10-23T21:07:30;49.25;;;37.75;;
63010;SDS011;49100;48.842;2.166;2022-10-23T21:10:15;41.00;;;32.50;;
63010;SDS011;49100;48.842;2.166;2022-10-23T21:13:00;43.25;;;32.50;;
63010;SDS011;49100;48.842;2.166;2022-10-23T21:15:45;35.50;;;32.00;;
63010;SDS011;49100;48.842;2.166;2022-10-23T21:18:30;31.75;;;26.50;;
63010;SDS011;49100;48.842;2.166;2022-10-23T21:21:16;39.25;;;29.25;;
63010;SDS011;49100;48.842;2.166;2022-10-23T21:24:06;36.75;;;28.25;;
63010;SDS011;49100;48.842;2.166;2022-10-23T21:26:53;34.75;;;29.50;;
63010;SDS011;49100;48.842;2.166;2022-10-23T21:29:38;26.25;;;24.75;;
63010;SDS011;49100;48.842;2.166;2022-10-23T21:32:22;32.50;;;29.50;;
63010;SDS011;49100;48.842;2.166;2022-10-23T21:35:07;33.25;;;29.75;;
63010;SDS011;49100;48.842;2.166;2022-10-23T21:37:52;37.00;;;28.75;;
63010;SDS011;49100;48.842;2.166;2022-10-23T21:40:37;38.00;;;27.00;;
63010;SDS011;49100;48.842;2.166;2022-10-23T21:43:22;42.50;;;30.50;;
63010;SDS011;49100;48.842;2.166;2022-10-23T21:46:11;36.25;;;26.00;;
63010;SDS011;49100;48.842;2.166;2022-10-23T21:48:58;39.25;;;28.00;;
63010;SDS011;49100;48.842;2.166;2022-10-23T21:51:43;33.75;;;25.50;;
63010;SDS011;49100;48.842;2.166;2022-10-23T21:54:28;26.25;;;25.00;;
63010;SDS011;49100;48.842;2.166;2022-10-23T21:57:13;35.25;;;28.50;;
63010;SDS011;49100;48.842;2.166;2022-10-23T21:59:58;26.75;;;21.75;;
63010;SDS011;49100;48.842;2.166;2022-10-23T22:02:43;21.50;;;19.50;;
63010;SDS011;49100;48.842;2.166;2022-10-23T22:05:27;29.75;;;24.00;;
63010;SDS011;49100;48.842;2.166;2022-10-23T22:08:12;27.00;;;22.00;;
63010;SDS011;49100;48.842;2.166;2022-10-23T22:10:57;17.00;;;11.00;;
63010;SDS011;49100;48.842;2.166;2022-10-23T22:13:42;13.00;;;9.00;;
63010;SDS011;49100;48.842;2.166;2022-10-23T22:16:28;12.25;;;9.00;;
63010;SDS011;49100;48.842;2.166;2022-10-23T22:19:13;12.25;;;7.25;;
63010;SDS011;49100;48.842;2.166;2022-10-23T22:21:58;6.00;;;4.75;;
63010;SDS011;49100;48.842;2.166;2022-10-23T22:24:44;9.00;;;4.75;;
63010;SDS011;49100;48.842;2.166;2022-10-23T22:27:28;9.25;;;6.75;;
63010;SDS011;49100;48.842;2.166;2022-10-23T22:30:13;6.25;;;5.50;;
63010;SDS011;49100;48.842;2.166;2022-10-23T22:32:57;8.50;;;8.00;;
63010;SDS011;49100;48.842;2.166;2022-10-23T22:35:41;6.25;;;5.25;;
63010;SDS011;49100;48.842;2.166;2022-10-23T22:38:26;9.75;;;6.00;;
63010;SDS011;49100;48.842;2.166;2022-10-23T22:41:11;8.50;;;5.00;;
63010;SDS011;49100;48.842;2.166;2022-10-23T22:43:56;12.00;;;7.75;;
63010;SDS011;49100;48.842;2.166;2022-10-23T22:46:41;8.00;;;6.50;;
63010;SDS011;49100;48.842;2.166;2022-10-23T22:49:26;7.25;;;4.75;;
63010;SDS011;49100;48.842;2.166;2022-10-23T22:52:11;8.75;;;6.00;;
63010;SDS011;49100;48.842;2.166;2022-10-23T22:54:56;6.50;;;4.75;;
63010;SDS011;49100;48.842;2.166;2022-10-23T22:57:40;8.25;;;5.50;;
63010;SDS011;49100;48.842;2.166;2022-10-23T23:00:25;12.00;;;6.00;;
63010;SDS011;49100;48.842;2.166;2022-10-23T23:03:10;4.00;;;4.00;;
63010;SDS011;49100;48.842;2.166;2022-10-23T23:05:55;7.25;;;6.00;;
63010;SDS011;49100;48.842;2.166;2022-10-23T23:08:40;9.75;;;5.00;;
63010;SDS011;49100;48.842;2.166;2022-10-23T23:11:25;8.50;;;5.00;;
63010;SDS011;49100;48.842;2.166;2022-10-23T23:14:10;7.75;;;5.50;;
63010;SDS011;49100;48.842;2.166;2022-10-23T23:16:55;6.00;;;6.00;;
63010;SDS011;49100;48.842;2.166;2022-10-23T23:19:39;6.50;;;4.75;;
63010;SDS011;49100;48.842;2.166;2022-10-23T23:22:23;10.50;;;6.25;;
63010;SDS011;49100;48.842;2.166;2022-10-23T23:25:08;9.00;;;5.25;;
63010;SDS011;49100;48.842;2.166;2022-10-23T23:27:53;11.25;;;8.00;;
63010;SDS011;49100;48.842;2.166;2022-10-23T23:30:41;6.25;;;6.25;;
63010;SDS011;49100;48.842;2.166;2022-10-23T23:33:26;5.50;;;4.50;;
63010;SDS011;49100;48.842;2.166;2022-10-23T23:36:11;6.75;;;5.00;;
63010;SDS011;49100;48.842;2.166;2022-10-23T23:38:58;4.75;;;4.75;;
63010;SDS011;49100;48.842;2.166;2022-10-23T23:41:43;8.75;;;5.25;;
63010;SDS011;49100;48.842;2.166;2022-10-23T23:44:28;5.75;;;5.25;;
63010;SDS011;49100;48.842;2.166;2022-10-23T23:47:13;8.50;;;5.75;;
63010;SDS011;49100;48.842;2.166;2022-10-23T23:49:57;7.50;;;5.25;;
63010;SDS011;49100;48.842;2.166;2022-10-23T23:52:42;8.50;;;5.75;;
63010;SDS011;49100;48.842;2.166;2022-10-23T23:55:26;5.50;;;4.50;;
63010;SDS011;49100;48.842;2.166;2022-10-23T23:58:10;5.75;;;4.75;;
